• Join FlightAware (Why Join?)
  • Login
  • US Flag 
07:46PM EDT


 

Airport Tracker/Info


-or-


 

Live Flight TrackerFlight Track Log ✈ RPA3143 ✈ 11-Jul-2013 ✈ KPIT - KDCA

Flight Track Log - Related Links

Times and Time Zones

All times are in EDT time to prevent confusion due to time zone crossing. See the RPA3143 flight status page for this flight to view local times or setup timezone preferences in your user account.

Time Position Orientation Groundspeed Altitude Reporting Facility
EDT Latitude Longitude Course Direction KTS MPH feet Rate Location/Type
06:07AM 40.4503 -80.2911 203° Southwest 261 300 4,600  Level Cleveland Center
06:08AM 40.3814 -80.2589 160° South 300 345 7,900 3,300 Climbing Cleveland Center
06:09AM 40.3314 -79.9062 164° South  Level Estimated
06:09AM 40.3064 -80.2236 160° South 305 351 11,200  Level Cleveland Center
06:10AM 40.2778 -79.7976 162° South  Level Estimated
06:10AM 40.2228 -80.1781 157° South 311 358 13,900  Level Cleveland Center
06:11AM 40.1951 -79.8680 213° Southwest  Level FlightAware Approximate
06:11AM 40.1183 -80.1325 162° South 359 413 17,000  Level Cleveland Center
06:12AM 40.1447 -79.7571 161° South  Level Estimated
06:12AM 40.0347 -80.0897 159° South 368 423 19,300  Level Cleveland Center
06:13AM 40.0541 -79.8080 203° Southwest  Level FlightAware Approximate
06:13AM 39.9344 -80.0417 160° South 368 423 21,000  Level Cleveland Center
06:14AM 39.8342 -79.9911 159° South 374 430 21,000  Level Cleveland Center
06:16AM 39.6633 -79.9128 161° South 378 435 21,000  Level Washington Center
06:17AM 39.5669 -79.8692 161° South 396 456 21,000  Level Washington Center
06:18AM 39.4469 -79.8461 172° South 396 456 21,000  Level Washington Center
06:19AM 39.3439 -79.8078 164° South 391 450 21,000  Level Washington Center
06:20AM 39.2897 -79.6892 121° Southeast 378 435 21,000  Level Washington Center
06:21AM 39.2758 -79.5436 97° East 361 415 21,000  Level Washington Center
06:22AM 39.2639 -79.3983 96° East 379 436 21,000  Level Washington Center
06:23AM 39.2458 -79.2367 98° East 392 451 21,000  Level Washington Center
06:24AM 39.2336 -79.0911 96° East 409 471 21,000  Level Washington Center
06:25AM 39.2211 -78.9433 96° East 409 471 21,000  Level Washington Center
06:26AM 39.2083 -78.8006 97° East 409 471 21,000 -60 Level Washington Center
06:27AM 39.1933 -78.6553 98° East 409 471 20,900 -960 Descending Washington Center
06:28AM 39.1817 -78.5397 97° East 409 471 19,200 -1,980 Descending Washington Center
06:29AM 39.1628 -78.3731 98° East 403 464 17,000 -1,140 Descending Washington Center
06:30AM 39.1322 -78.2406 107° East 384 442 17,000  Level Washington Center
06:31AM 39.0997 -78.1083 108° East 384 442 17,000 -960 Level Washington Center
06:32AM 39.0647 -77.9817 110° East 384 442 15,100 -1,920 Descending Washington Center
06:33AM 39.0358 -77.8603 107° East 376 433 13,300 -1,800 Descending Washington Center
06:34AM 39.0086 -77.7528 108° East 330 380 11,500 -1,680 Descending Washington Center
06:35AM 38.9814 -77.6450 108° East 319 367 9,900 -1,620 Descending Washington Center
06:36AM 38.9517 -77.5456 111° Southeast 307 353 8,300 -1,320 Descending Washington Center
06:37AM 38.9614 -77.4578 82° East 280 322 7,400 -1,500 Descending Washington Center
06:38AM 39.0000 -77.3500 65° Northeast 244 281 5,100 -1,260 Descending Potomac TRACON
06:39AM 39.0167 -77.2667 76° East 226 260 4,700 -600 Descending Potomac TRACON
06:40AM 39.0167 -77.2167 90° East 221 254 4,000 -780 Descending Potomac TRACON